Oxnard, CA

11:39 AM PST on December 26, 2014 (GMT -0800)
Point Mugu Naval Air Station | Change Station
CLOSE
Current Station
Airport
Location: Point Mugu,
Elevation: 13 ft
Nearby Weather Stations

Elev 13 ft 34.12 °N, 119.12 °W | Updated 43 minutes ago

Partly Cloudy
Partly Cloudy
63 °F
Feels Like 63 °F
N
17
Wind Variable Wind from NE
Gusts 30 mph

Today
High -- | Low -- °F
--% Chance of Precip.
Yesterday
High -- | Low -- °F
Precip. -- in
7:00 AM 4:53 PM
Waxing Crescent, 28% visible
Pressure 30.12 in
Visibility 10.0 miles
Clouds Few 4000 ft
Dew Point 21 °F
Humidity 20%
Rainfall 0.00 in
Snow Depth Not available.
UV 3 out of 12
Pollen 4.60 out of 12
Air Quality Not available.
Flu Activity Not available.
METAR KNTD 261856Z 04015G26KT 10SM FEW040 17/M06 A3011 RMK AO2 PK WND 07026/1813 SLP197 T01721061 $

More Conditions Fewer Conditions

Pressure 30.12 in
Visibility 10.0 miles
Clouds Few 4000 ft
Dew Point 21 °F
Humidity 20%
Rainfall 0.00 in
Snow Depth Not available.
UV 3 out of 12
Pollen 4.60 out of 12
Air Quality Not available.
Flu Activity Not available.
METAR KNTD 261856Z 04015G26KT 10SM FEW040 17/M06 A3011 RMK AO2 PK WND 07026/1813 SLP197 T01721061 $

More Conditions Fewer Conditions

10-Day Weather Forecast

Almanac

Astronomy

Dec. 26, 2014 Rise Set
Actual Time
Civil Twilight
Nautical Twilight
Astronomical Twilight
Moon
Length of Visible Light
Length of Day
Tomorrow will be .
, % of the Moon is Illuminated

Today's Extremes

State Highs State Lows

Community

WunderPhotos

Upload Photos

1,780,675 photos uploaded!

WunderBlogs® & News

Nearby

Air Quality

  Air Quality AQ Index Pollutant
Not available.

Snow Depth

Station Depth Elevation

Earthquake Activity

City Distance Mag. Time & Date
Minimum magnitude displayed is 2.5.

Coastal Water Temperatures

Place Temperature

Nearby Weather Stations